• Join FlightAware (Why Join?)
  • Login
  • US Flag 
02:40AM EDT


 

Airport Tracker/Info


-or-


 

Live Flight TrackerFlight Track Log ✈ 4X-EAE ✈ 21-Apr-2012 ✈ VABB / BOM - LLBG / TLV

Flight Track Log - Related Links

Times and Time Zones

All times are in EDT time to prevent confusion due to time zone crossing. See the 4X-EAE flight status page for this flight to view local times or setup timezone preferences in your user account.

Time Position Orientation Groundspeed Altitude Reporting Facility
EDT Latitude Longitude Course Direction KTS MPH feet Rate Location/Type
01:52PM 19.1758 72.6973 298° West  Level Estimated
01:53PM 19.2145 72.6214 298° West  Level Estimated
01:54PM 19.2531 72.5454 298° West  Level Estimated
01:55PM 19.2917 72.4695 298° West  Level Estimated
01:56PM 19.3303 72.3935 298° West  Level Estimated
01:57PM 19.3688 72.3174 298° West  Level Estimated
01:58PM 19.4073 72.2414 298° West  Level Estimated
01:59PM 19.4458 72.1653 298° West  Level Estimated
02:00PM 19.4842 72.0891 298° West  Level Estimated
02:01PM 19.5227 72.0129 298° West  Level Estimated
02:02PM 19.5610 71.9367 298° West  Level Estimated
02:03PM 19.5994 71.8604 298° West  Level Estimated
02:04PM 19.6377 71.7841 298° West  Level Estimated
02:05PM 19.6760 71.7078 298° West  Level Estimated
02:06PM 19.7143 71.6314 298° West  Level Estimated
02:07PM 19.7525 71.5550 298° West  Level Estimated
02:08PM 19.7907 71.4786 298° West  Level Estimated
02:09PM 19.8288 71.4021 298° West  Level Estimated
02:10PM 19.8669 71.3256 298° West  Level Estimated
02:11PM 19.9050 71.2491 298° West  Level Estimated
02:12PM 19.9431 71.1725 298° West  Level Estimated
02:13PM 19.9811 71.0958 298° West  Level Estimated
02:14PM 20.0191 71.0192 298° West  Level Estimated
02:15PM 20.0571 70.9425 298° West  Level Estimated
02:16PM 20.0950 70.8658 298° West  Level Estimated
02:17PM 20.1329 70.7890 298° West  Level Estimated
02:18PM 20.1707 70.7122 298° West  Level Estimated
02:19PM 20.2086 70.6353 298° West  Level Estimated
02:20PM 20.2464 70.5584 298° West  Level Estimated
02:21PM 20.2841 70.4815 298° West  Level Estimated
02:22PM 20.3219 70.4046 298° West  Level Estimated
02:23PM 20.3596 70.3276 298° West  Level Estimated
02:24PM 20.3972 70.2505 298° West  Level Estimated
02:25PM 20.4348 70.1735 298° West  Level Estimated
02:26PM 20.4724 70.0964 297° West  Level Estimated
02:27PM 20.5100 70.0192 297° West  Level Estimated
02:28PM 20.5475 69.9420 297° West  Level Estimated
02:29PM 20.5850 69.8648 297° West  Level Estimated
02:30PM 20.6224 69.7876 297° West  Level Estimated
02:31PM 20.6599 69.7103 297° West  Level Estimated
02:32PM 20.6973 69.6329 297° West  Level Estimated
02:33PM 20.7346 69.5555 297° West  Level Estimated
02:34PM 20.7719 69.4781 297° West  Level Estimated
02:35PM 20.8092 69.4007 297° West  Level Estimated
02:36PM 20.8465 69.3232 297° West  Level Estimated
02:37PM 20.8837 69.2457 297° West  Level Estimated
02:38PM 20.9208 69.1681 297° West  Level Estimated
02:39PM 20.9580 69.0905 297° West  Level Estimated
02:40PM 20.9951 69.0128 297° West  Level Estimated
02:41PM 21.0322 68.9352 297° West  Level Estimated
02:42PM 21.0692 68.8575 297° West  Level Estimated
02:43PM 21.1062 68.7797 297° West  Level Estimated
02:44PM 21.1432 68.7019 297° West  Level Estimated
02:45PM 21.1801 68.6241 297° West  Level Estimated
02:46PM 21.2170 68.5462 297° West  Level Estimated
02:47PM 21.2538 68.4683 297° West  Level Estimated
02:48PM 21.2907 68.3903 297° West  Level Estimated
02:49PM 21.3274 68.3123 297° West  Level Estimated
02:50PM 21.3642 68.2343 297° West  Level Estimated
02:51PM 21.4009 68.1562 297° West  Level Estimated
02:52PM 21.4376 68.0781 297° West  Level Estimated
02:53PM 21.4742 68.0000 297° West  Level Estimated
02:54PM 21.5108 67.9218 297° West  Level Estimated
02:55PM 21.5474 67.8436 297° West  Level Estimated
02:56PM 21.5839 67.7653 297° West  Level Estimated
02:57PM 21.6204 67.6870 297° West  Level Estimated
02:58PM 21.6569 67.6086 297° West  Level Estimated
02:59PM 21.6933 67.5302 297° West  Level Estimated
03:00PM 21.7297 67.4518 297° West  Level Estimated
03:01PM 21.7660 67.3734 296° West  Level Estimated
03:02PM 21.8023 67.2949 296° West  Level Estimated
03:03PM 21.8386 67.2163 296° West  Level Estimated
03:04PM 21.8749 67.1377 296° West  Level Estimated
03:05PM 21.9111 67.0591 296° West  Level Estimated
03:06PM 21.9472 66.9804 296° West  Level Estimated
03:07PM 21.9833 66.9017 296° West  Level Estimated
03:08PM 22.0194 66.8230 296° West  Level Estimated
03:09PM 22.0555 66.7442 296° West  Level Estimated
03:10PM 22.0915 66.6654 296° West  Level Estimated
03:11PM 22.1275 66.5865 296° West  Level Estimated
03:12PM 22.1634 66.5076 296° West  Level Estimated
03:13PM 22.1993 66.4287 296° West  Level Estimated
03:14PM 22.2352 66.3497 296° West  Level Estimated
03:15PM 22.2710 66.2706 296° West  Level Estimated
03:16PM 22.3068 66.1916 296° West  Level Estimated
03:17PM 22.3425 66.1125 296° West  Level Estimated
03:18PM 22.3782 66.0333 296° West  Level Estimated
03:19PM 22.4139 65.9541 296° West  Level Estimated
03:20PM 22.4495 65.8749 296° West  Level Estimated
03:21PM 22.4851 65.7956 296° West  Level Estimated
03:22PM 22.5207 65.7163 296° West  Level Estimated
03:23PM 22.5562 65.6370 296° West  Level Estimated
03:24PM 22.5916 65.5576 296° West  Level Estimated
03:25PM 22.6271 65.4781 296° West  Level Estimated
03:26PM 22.6625 65.3987 296° West  Level Estimated
03:27PM 22.6978 65.3192 296° West  Level Estimated
03:28PM 22.7332 65.2396 296° West  Level Estimated
03:29PM 22.7684 65.1600 296° West  Level Estimated
03:30PM 22.8037 65.0804 296° West  Level Estimated
03:31PM 22.8389 65.0007 296° West  Level Estimated
03:32PM 22.8740 64.9210 296° West  Level Estimated
03:33PM 22.9092 64.8412 296° West  Level Estimated
03:34PM 22.9442 64.7614 295° West  Level Estimated
03:35PM 22.9793 64.6816 295° West  Level Estimated
03:36PM 23.0143 64.6017 295° West  Level Estimated
03:37PM 23.0492 64.5218 295° West  Level Estimated
03:38PM 23.0842 64.4418 295° West  Level Estimated
03:39PM 23.1190 64.3618 295° West  Level Estimated
03:40PM 23.1539 64.2817 295° West  Level Estimated
03:41PM 23.1887 64.2016 295° West  Level Estimated
03:42PM 23.2234 64.1215 295° West  Level Estimated
03:43PM 23.2582 64.0413 295° West  Level Estimated
03:44PM 23.2928 63.9611 295° West  Level Estimated
03:45PM 23.3275 63.8808 295° West  Level Estimated
03:46PM 23.3621 63.8005 295° West  Level Estimated
03:47PM 23.3966 63.7202 295° West  Level Estimated
03:48PM 23.4311 63.6398 295° West  Level Estimated
03:49PM 23.4656 63.5594 295° West  Level Estimated
03:50PM 23.5000 63.4789 295° West  Level Estimated
03:51PM 23.5344 63.3984 295° West  Level Estimated
03:52PM 23.5688 63.3178 295° West  Level Estimated
03:53PM 23.6031 63.2373 295° West  Level Estimated
03:54PM 23.6374 63.1566 295° West  Level Estimated
03:55PM 23.6716 63.0759 295° West  Level Estimated
03:56PM 23.7058 62.9952 295° West  Level Estimated
03:57PM 23.7399 62.9144 295° West  Level Estimated
03:58PM 23.7740 62.8336 295° West  Level Estimated
03:59PM 23.8081 62.7528 295° West  Level Estimated
04:00PM 23.8421 62.6719 295° West  Level Estimated
04:01PM 23.8760 62.5910 295° West  Level Estimated
04:02PM 23.9100 62.5100 295° West  Level Estimated
04:03PM 23.9439 62.4290 295° West  Level Estimated
04:04PM 23.9777 62.3479 295° West  Level Estimated
04:05PM 24.0115 62.2668 295° West  Level Estimated
04:06PM 24.0453 62.1856 294° West  Level Estimated
04:07PM 24.0790 62.1045 294° West  Level Estimated
04:08PM 24.1126 62.0232 294° West  Level Estimated
04:09PM 24.1463 61.9420 294° West  Level Estimated
04:10PM 24.1799 61.8606 294° West  Level Estimated
04:11PM 24.2134 61.7793 294° West  Level Estimated
04:12PM 24.2469 61.6979 294° West  Level Estimated
04:13PM 24.2804 61.6164 294° West  Level Estimated
04:14PM 24.3138 61.5349 294° West  Level Estimated
04:15PM 24.3472 61.4534 294° West  Level Estimated
04:16PM 24.3805 61.3718 294° West  Level Estimated
04:17PM 24.4138 61.2902 294° West  Level Estimated
04:18PM 24.4470 61.2086 294° West  Level Estimated
04:19PM 24.4802 61.1269 294° West  Level Estimated
04:20PM 24.5133 61.0451 294° West  Level Estimated
04:21PM 24.5465 60.9633 294° West  Level Estimated
04:22PM 24.5795 60.8815 294° West  Level Estimated
04:23PM 24.6125 60.7996 294° West  Level Estimated
04:24PM 24.6455 60.7177 294° West  Level Estimated
04:25PM 24.6784 60.6357 294° West  Level Estimated
04:26PM 24.7113 60.5537 294° West  Level Estimated
04:27PM 24.7442 60.4717 294° West  Level Estimated
04:28PM 24.7770 60.3896 294° West  Level Estimated
04:29PM 24.8097 60.3074 294° West  Level Estimated
04:30PM 24.8424 60.2253 294° West  Level Estimated
04:31PM 24.8751 60.1430 294° West  Level Estimated
04:32PM 24.9077 60.0608 294° West  Level Estimated
04:33PM 24.9403 59.9785 294° West  Level Estimated
04:34PM 24.9728 59.8961 294° West  Level Estimated
04:35PM 25.0053 59.8137 293° West  Level Estimated
04:36PM 25.0377 59.7313 293° West  Level Estimated
04:37PM 25.0701 59.6488 293° West  Level Estimated
04:38PM 25.1024 59.5662 293° West  Level Estimated
04:39PM 25.1348 59.4837 293° West  Level Estimated
04:40PM 25.1670 59.4011 293° West  Level Estimated
04:41PM 25.1992 59.3184 293° West  Level Estimated
04:42PM 25.2314 59.2357 293° West  Level Estimated
04:43PM 25.2635 59.1529 293° West  Level Estimated
04:44PM 25.2956 59.0701 293° West  Level Estimated
04:45PM 25.3276 58.9873 293° West  Level Estimated
04:46PM 25.3596 58.9044 293° West  Level Estimated
04:47PM 25.3915 58.8215 293° West  Level Estimated
04:48PM 25.4234 58.7385 293° West  Level Estimated
04:49PM 25.4552 58.6555 293° West  Level Estimated
04:50PM 25.4870 58.5725 293° West  Level Estimated
04:51PM 25.5187 58.4894 293° West  Level Estimated
04:52PM 25.5504 58.4062 293° West  Level Estimated
04:53PM 25.5821 58.3231 293° West  Level Estimated
04:54PM 25.6137 58.2398 293° West  Level Estimated
04:55PM 25.6452 58.1566 293° West  Level Estimated
04:56PM 25.6768 58.0732 293° West  Level Estimated
04:57PM 25.7082 57.9899 293° West  Level Estimated
04:58PM 25.7396 57.9065 293° West  Level Estimated
04:59PM 25.7710 57.8230 293° West  Level Estimated
05:00PM 25.8023 57.7395 293° West  Level Estimated
05:01PM 25.8336 57.6560 293° West  Level Estimated
05:02PM 25.8648 57.5724 293° West  Level Estimated
05:03PM 25.8960 57.4888 292° West  Level Estimated
05:04PM 25.9271 57.4051 292° West  Level Estimated
05:05PM 25.9582 57.3214 292° West  Level Estimated
05:06PM 25.9892 57.2376 292° West  Level Estimated
05:07PM 26.0202 57.1538 292° West  Level Estimated
05:08PM 26.0511 57.0700 292° West  Level Estimated
05:09PM 26.0820 56.9861 292° West  Level Estimated
05:10PM 26.1129 56.9022 292° West  Level Estimated
05:11PM 26.1436 56.8182 292° West  Level Estimated
05:12PM 26.1744 56.7342 292° West  Level Estimated
05:13PM 26.2051 56.6501 292° West  Level Estimated
05:14PM 26.2357 56.5660 292° West  Level Estimated
05:15PM 26.2663 56.4818 292° West  Level Estimated
05:16PM 26.2968 56.3976 292° West  Level Estimated
05:17PM 26.3273 56.3134 292° West  Level Estimated
05:18PM 26.3578 56.2291 292° West  Level Estimated
05:19PM 26.3882 56.1448 292° West  Level Estimated
05:20PM 26.4185 56.0604 292° West  Level Estimated
05:21PM 26.4488 55.9760 292° West  Level Estimated
05:22PM 26.4791 55.8915 292° West  Level Estimated
05:23PM 26.5093 55.8070 292° West  Level Estimated
05:24PM 26.5394 55.7224 292° West  Level Estimated
05:25PM 26.5695 55.6378 292° West  Level Estimated
05:26PM 26.5996 55.5532 292° West  Level Estimated
05:27PM 26.6296 55.4685 292° West  Level Estimated
05:28PM 26.6595 55.3838 292° West  Level Estimated
05:29PM 26.6894 55.2990 292° West  Level Estimated
05:30PM 26.7193 55.2142 291° West  Level Estimated
05:31PM 26.7491 55.1293 291° West  Level Estimated
05:32PM 26.7788 55.0444 291° West  Level Estimated
05:33PM 26.8085 54.9594 291° West  Level Estimated
05:34PM 26.8382 54.8744 291° West  Level Estimated
05:35PM 26.8678 54.7894 291° West  Level Estimated
05:36PM 26.8973 54.7043 291° West  Level Estimated
05:37PM 26.9268 54.6191 291° West  Level Estimated
05:38PM 26.9562 54.5340 291° West  Level Estimated
05:39PM 26.9856 54.4487 291° West  Level Estimated
05:40PM 27.0149 54.3635 291° West  Level Estimated
05:41PM 27.0442 54.2782 291° West  Level Estimated
05:42PM 27.0735 54.1928 291° West  Level Estimated
05:43PM 27.1027 54.1074 291° West  Level Estimated
05:44PM 27.1318 54.0220 291° West  Level Estimated
05:45PM 27.1609 53.9365 291° West  Level Estimated
05:46PM 27.1899 53.8509 291° West  Level Estimated
05:47PM 27.2189 53.7654 291° West  Level Estimated
05:48PM 27.2478 53.6797 291° West  Level Estimated
05:49PM 27.2767 53.5941 291° West  Level Estimated
05:50PM 27.3055 53.5084 291° West  Level Estimated
05:51PM 27.3343 53.4226 291° West  Level Estimated
05:52PM 27.3630 53.3368 291° West  Level Estimated
05:53PM 27.3916 53.2509 291° West  Level Estimated
05:54PM 27.4202 53.1651 291° West  Level Estimated
05:55PM 27.4488 53.0791 291° West  Level Estimated
05:56PM 27.4773 52.9931 290° West  Level Estimated
05:57PM 27.5058 52.9071 290° West  Level Estimated
05:58PM 27.5342 52.8210 290° West  Level Estimated
05:59PM 27.5625 52.7349 290° West  Level Estimated
06:00PM 27.5908 52.6488 290° West  Level Estimated
06:01PM 27.6190 52.5626 290° West  Level Estimated
06:02PM 27.6472 52.4763 290° West  Level Estimated
06:03PM 27.6754 52.3900 290° West  Level Estimated
06:04PM 27.7034 52.3037 290° West  Level Estimated
06:05PM 27.7315 52.2173 290° West  Level Estimated
06:06PM 27.7595 52.1309 290° West  Level Estimated
06:07PM 27.7874 52.0444 290° West  Level Estimated
06:08PM 27.8152 51.9579 290° West  Level Estimated
06:09PM 27.8431 51.8714 290° West  Level Estimated
06:10PM 27.8708 51.7848 290° West  Level Estimated
06:11PM 27.8985 51.6981 290° West  Level Estimated
06:12PM 27.9262 51.6114 290° West  Level Estimated
06:13PM 27.9538 51.5247 290° West  Level Estimated
06:14PM 27.9813 51.4379 290° West  Level Estimated
06:15PM 28.0088 51.3511 290° West  Level Estimated
06:16PM 28.0362 51.2642 290° West  Level Estimated
06:17PM 28.0636 51.1773 290° West  Level Estimated
06:18PM 28.0909 51.0904 290° West  Level Estimated
06:19PM 28.1182 51.0034 290° West  Level Estimated
06:20PM 28.1454 50.9163 290° West  Level Estimated
06:21PM 28.1726 50.8292 289° West  Level Estimated
06:22PM 28.1997 50.7421 289° West  Level Estimated
06:23PM 28.2267 50.6549 289° West  Level Estimated
06:24PM 28.2537 50.5677 289° West  Level Estimated
06:25PM 28.2806 50.4804 289° West  Level Estimated
06:26PM 28.3075 50.3931 289° West  Level Estimated
06:27PM 28.3343 50.3058 289° West  Level Estimated
06:28PM 28.3611 50.2184 289° West  Level Estimated
06:29PM 28.3878 50.1309 289° West  Level Estimated
06:30PM 28.4145 50.0434 289° West  Level Estimated
06:31PM 28.4411 49.9559 289° West  Level Estimated
06:32PM 28.4676 49.8684 289° West  Level Estimated
06:33PM 28.4941 49.7807 289° West  Level Estimated
06:34PM 28.5205 49.6931 289° West  Level Estimated
06:35PM 28.5469 49.6054 289° West  Level Estimated
06:36PM 28.5732 49.5176 289° West  Level Estimated
06:37PM 28.5995 49.4298 289° West  Level Estimated
06:38PM 28.6257 49.3420 289° West  Level Estimated
06:39PM 28.6519 49.2541 289° West  Level Estimated
06:40PM 28.6780 49.1662 289° West  Level Estimated
06:41PM 28.7040 49.0782 289° West  Level Estimated
06:42PM 28.7300 48.9902 289° West  Level Estimated
06:43PM 28.7559 48.9021 289° West  Level Estimated
06:44PM 28.7818 48.8140 288° West  Level Estimated
06:45PM 28.8076 48.7259 288° West  Level Estimated
06:46PM 28.8333 48.6377 288° West  Level Estimated
06:47PM 28.8590 48.5495 288° West  Level Estimated
06:48PM 28.8847 48.4612 288° West  Level Estimated
06:49PM 28.9102 48.3729 288° West  Level Estimated
06:50PM 28.9358 48.2845 288° West  Level Estimated
06:51PM 28.9612 48.1961 288° West  Level Estimated
06:52PM 28.9866 48.1077 288° West  Level Estimated
06:53PM 29.0120 48.0192 288° West  Level Estimated
06:54PM 29.0373 47.9307 288° West  Level Estimated
06:55PM 29.0625 47.8421 288° West  Level Estimated
06:56PM 29.0877 47.7535 288° West  Level Estimated
06:57PM 29.1128 47.6648 288° West  Level Estimated
06:58PM 29.1378 47.5761 288° West  Level Estimated
06:59PM 29.1628 47.4873 288° West  Level Estimated
07:00PM 29.1878 47.3985 288° West  Level Estimated
07:01PM 29.2127 47.3097 288° West  Level Estimated
07:02PM 29.2375 47.2208 288° West  Level Estimated
07:03PM 29.2622 47.1319 288° West  Level Estimated
07:04PM 29.2869 47.0429 288° West  Level Estimated
07:05PM 29.3116 46.9539 288° West  Level Estimated
07:06PM 29.3362 46.8649 288° West  Level Estimated
07:07PM 29.3607 46.7758 288° West  Level Estimated
07:08PM 29.3852 46.6866 287° West  Level Estimated
07:09PM 29.4096 46.5975 287° West  Level Estimated
07:10PM 29.4339 46.5082 287° West  Level Estimated
07:11PM 29.4582 46.4190 287° West  Level Estimated
07:12PM 29.4825 46.3297 287° West  Level Estimated
07:13PM 29.5066 46.2403 287° West  Level Estimated
07:14PM 29.5307 46.1509 287° West  Level Estimated
07:15PM 29.5548 46.0615 287° West  Level Estimated
07:16PM 29.5788 45.9720 287° West  Level Estimated
07:17PM 29.6027 45.8825 287° West  Level Estimated
07:18PM 29.6266 45.7929 287° West  Level Estimated
07:19PM 29.6504 45.7033 287° West  Level Estimated
07:20PM 29.6741 45.6137 287° West  Level Estimated
07:21PM 29.6978 45.5240 287° West  Level Estimated
07:22PM 29.7215 45.4342 287° West  Level Estimated
07:23PM 29.7450 45.3445 287° West  Level Estimated
07:24PM 29.7685 45.2546 287° West  Level Estimated
07:25PM 29.7920 45.1648 287° West  Level Estimated
07:26PM 29.8154 45.0749 287° West  Level Estimated
07:27PM 29.8387 44.9849 287° West  Level Estimated
07:28PM 29.8620 44.8949 287° West  Level Estimated
07:29PM 29.8852 44.8049 287° West  Level Estimated
07:30PM 29.9083 44.7148 286° West  Level Estimated
07:31PM 29.9314 44.6247 286° West  Level Estimated
07:32PM 29.9544 44.5346 286° West  Level Estimated
07:33PM 29.9774 44.4444 286° West  Level Estimated
07:34PM 30.0003 44.3541 286° West  Level Estimated
07:35PM 30.0231 44.2639 286° West  Level Estimated
07:36PM 30.0459 44.1735 286° West  Level Estimated
07:37PM 30.0686 44.0832 286° West  Level Estimated
07:38PM 30.0913 43.9928 286° West  Level Estimated
07:39PM 30.1139 43.9023 286° West  Level Estimated
07:40PM 30.1364 43.8118 286° West  Level Estimated
07:41PM 30.1589 43.7213 286° West  Level Estimated
07:42PM 30.1813 43.6307 286° West  Level Estimated
07:43PM 30.2036 43.5401 286° West  Level Estimated
07:44PM 30.2259 43.4495 286° West  Level Estimated
07:45PM 30.2481 43.3588 286° West  Level Estimated
07:46PM 30.2703 43.2681 286° West  Level Estimated
07:47PM 30.2923 43.1773 286° West  Level Estimated
07:48PM 30.3144 43.0865 286° West  Level Estimated
07:49PM 30.3363 42.9956 286° West  Level Estimated
07:50PM 30.3582 42.9047 286° West  Level Estimated
07:51PM 30.3801 42.8138 286° West  Level Estimated
07:52PM 30.4019 42.7228 285° West  Level Estimated
07:53PM 30.4236 42.6318 285° West  Level Estimated
07:54PM 30.4452 42.5407 285° West  Level Estimated
07:55PM 30.4668 42.4496 285° West  Level Estimated
07:56PM 30.4883 42.3585 285° West  Level Estimated
07:57PM 30.5098 42.2673 285° West  Level Estimated
07:58PM 30.5312 42.1761 285° West  Level Estimated
07:59PM 30.5525 42.0848 285° West  Level Estimated
08:00PM 30.5738 41.9935 285° West  Level Estimated
08:01PM 30.5950 41.9022 285° West  Level Estimated
08:02PM 30.6161 41.8108 285° West  Level Estimated
08:03PM 30.6372 41.7194 285° West  Level Estimated
08:04PM 30.6582 41.6279 285° West  Level Estimated
08:05PM 30.6792 41.5364 285° West  Level Estimated
08:06PM 30.7001 41.4449 285° West  Level Estimated
08:07PM 30.7209 41.3533 285° West  Level Estimated
08:08PM 30.7417 41.2617 285° West  Level Estimated
08:09PM 30.7624 41.1700 285° West  Level Estimated
08:10PM 30.7830 41.0783 285° West  Level Estimated
08:11PM 30.8035 40.9866 285° West  Level Estimated
08:12PM 30.8240 40.8948 285° West  Level Estimated
08:13PM 30.8445 40.8030 285° West  Level Estimated
08:14PM 30.8648 40.7112 284° West  Level Estimated
08:15PM 30.8852 40.6193 284° West  Level Estimated
08:16PM 30.9054 40.5273 284° West  Level Estimated
08:17PM 30.9256 40.4354 284° West  Level Estimated
08:18PM 30.9457 40.3434 284° West  Level Estimated
08:19PM 30.9657 40.2513 284° West  Level Estimated
08:20PM 30.9857 40.1592 284° West  Level Estimated
08:21PM 31.0056 40.0671 284° West  Level Estimated
08:22PM 31.0255 39.9749 284° West  Level Estimated
08:23PM 31.0453 39.8827 284° West  Level Estimated
08:24PM 31.0650 39.7905 284° West  Level Estimated
08:25PM 31.0846 39.6982 284° West  Level Estimated
08:26PM 31.1042 39.6059 284° West  Level Estimated
08:27PM 31.1237 39.5135 284° West  Level Estimated
08:28PM 31.1432 39.4212 284° West  Level Estimated
08:29PM 31.1626 39.3287 284° West  Level Estimated
08:30PM 31.1819 39.2363 284° West  Level Estimated
08:31PM 31.2012 39.1437 284° West  Level Estimated
08:32PM 31.2204 39.0512 284° West  Level Estimated
08:33PM 31.2395 38.9586 284° West  Level Estimated
08:34PM 31.2585 38.8660 284° West  Level Estimated
08:35PM 31.2775 38.7733 283° West  Level Estimated
08:36PM 31.2965 38.6807 283° West  Level Estimated
08:37PM 31.3153 38.5879 283° West  Level Estimated
08:38PM 31.3341 38.4952 283° West  Level Estimated
08:39PM 31.3528 38.4024 283° West  Level Estimated
08:40PM 31.3715 38.3095 283° West  Level Estimated
08:41PM 31.3901 38.2166 283° West  Level Estimated
08:42PM 31.4086 38.1237 283° West  Level Estimated
08:43PM 31.4271 38.0308 283° West  Level Estimated
08:44PM 31.4455 37.9378 283° West  Level Estimated
08:45PM 31.4638 37.8448 283° West  Level Estimated
08:46PM 31.4820 37.7517 283° West  Level Estimated
08:47PM 31.5002 37.6586 283° West  Level Estimated
08:48PM 31.5184 37.5655 283° West  Level Estimated
08:49PM 31.5364 37.4723 283° West  Level Estimated
08:50PM 31.5544 37.3791 283° West  Level Estimated
08:51PM 31.5723 37.2859 283° West  Level Estimated
08:52PM 31.5902 37.1926 283° West  Level Estimated
08:53PM 31.6080 37.0993 283° West  Level Estimated
08:54PM 31.6257 37.0059 283° West  Level Estimated
08:55PM 31.6433 36.9126 282° West  Level Estimated
08:56PM 31.6609 36.8191 282° West  Level Estimated
08:57PM 31.6784 36.7257 282° West  Level Estimated
08:58PM 31.6958 36.6322 282° West  Level Estimated
08:59PM 31.7132 36.5387 282° West  Level Estimated
09:00PM 31.7305 36.4451 282° West  Level Estimated
09:01PM 31.7478 36.3515 282° West  Level Estimated
09:02PM 31.7649 36.2579 282° West  Level Estimated
09:03PM 31.7820 36.1642 282° West  Level Estimated
09:04PM 31.7991 36.0705 282° West  Level Estimated
09:05PM 31.8160 35.9768 282° West  Level Estimated
09:06PM 31.8329 35.8830 282° West  Level Estimated
09:07PM 31.8498 35.7892 282° West  Level Estimated
09:08PM 31.8665 35.6954 282° West  Level Estimated
09:09PM 31.8832 35.6015 282° West  Level Estimated
09:10PM 31.8998 35.5076 282° West  Level Estimated
09:11PM 31.9164 35.4137 282° West  Level Estimated
09:12PM 31.9329 35.3197 282° West  Level Estimated
09:13PM 31.9493 35.2257 282° West  Level Estimated
09:14PM 31.9656 35.1317 282° West  Level Estimated
09:15PM 31.9819 35.0376 281° West  Level Estimated
09:16PM 31.9981 34.9435 281° West  Level Estimated
09:17PM 32.0142 34.8494 101° East  Level Estimated
09:18PM 31.9981 34.9435 281° West  Level Estimated
09:19PM 32.0142 34.8494 101° East  Level Estimated
09:20PM 31.9981 34.9435 281° West  Level Estimated
09:21PM 32.0142 34.8494 101° East  Level Estimated
09:22PM 31.9981 34.9435 281° West  Level Estimated
09:23PM 32.0142 34.8494 101° East  Level Estimated
09:24PM 31.9981 34.9435 281° West  Level Estimated
09:25PM 32.0142 34.8494 101° East  Level Estimated
09:26PM 31.9981 34.9435 281° West  Level Estimated
09:27PM 32.0142 34.8494 101° East  Level Estimated
09:28PM 31.9981 34.9435 281° West  Level Estimated
09:29PM 32.0142 34.8494 101° East  Level Estimated
09:30PM 31.9981 34.9435 281° West  Level Estimated
09:31PM 32.0142 34.8494 101° East  Level Estimated
09:32PM 31.9981 34.9435 101° East  Level Estimated